Time;durP1;ratioP1;P1;durP2;ratioP2;P2;SDS_P1;SDS_P2;PMS_P1;PMS_P2;Temp;Humidity;BMP_temperature;BMP_pressure;BME280_temperature;BME280_humidity;BME280_pressure;Samples;Min_cycle;Max_cycle;Signal;HPM_P1;HPM_P2
2022/05/17 00:00:57;;;;;;;;;;;;;;;15.87;46.13;100432.62;106125;1271;22506;-50
2022/05/17 00:03:27;;;;;;;;;;;;;;;15.84;46.12;100433.64;106115;1270;24371;-51
2022/05/17 00:05:57;;;;;;;;;;;;;;;15.81;46.31;100435.64;106279;1270;22500;-50
2022/05/17 00:08:27;;;;;;;;;;;;;;;15.77;46.39;100429.48;106178;1271;22521;-51
2022/05/17 00:10:56;;;;;;;;;;;;;;;15.74;46.23;100425.85;106121;1271;22531;-51
2022/05/17 00:13:27;;;;;;;;;;;;;;;15.72;46.49;100432.14;106124;1271;25347;-54
2022/05/17 00:15:57;;;;;;;;;;;;;;;15.70;46.51;100430.35;105983;1271;22537;-50
2022/05/17 00:18:26;;;;;;;;;;;;;;;15.67;46.43;100430.09;106033;1271;22594;-52
2022/05/17 00:20:56;;;;;;;;;;;;;;;15.64;46.59;100430.91;106061;1268;22509;-48
2022/05/17 00:23:26;;;;;;;;;;;;;;;15.63;46.69;100428.55;106580;1270;24683;-50
2022/05/17 00:25:57;;;;;;;;;;;;;;;15.60;46.78;100424.30;106127;1270;22710;-51
2022/05/17 00:28:27;;;;;;;;;;;;;;;15.59;46.62;100422.20;106033;1271;25292;-49
2022/05/17 00:30:58;;;;;;;;;;;;;;;15.57;46.80;100419.02;106096;1271;22522;-51
2022/05/17 00:33:28;;;;;;;;;;;;;;;15.57;46.78;100412.73;106009;1271;23936;-50
2022/05/17 00:35:57;;;;;;;;;;;;;;;15.53;46.85;100412.71;106256;1270;22511;-50
2022/05/17 00:38:27;;;;;;;;;;;;;;;15.52;47.09;100407.10;106294;1271;22510;-50
2022/05/17 00:40:57;;;;;;;;;;;;;;;15.52;47.12;100407.45;106180;1271;22534;-49
2022/05/17 00:44:42;;;;;;;;;;;;;;;15.49;47.08;100408.22;106086;1270;22512;-50
2022/05/17 00:46:23;;;;;;;;;;;;;;;15.45;47.03;100410.58;106065;1270;26514;-53
2022/05/17 00:48:53;;;;;;;;;;;;;;;15.42;47.31;100407.21;106101;1270;22544;-50
2022/05/17 00:51:27;;;;;;;;;;;;;;;15.41;47.42;100403.92;105946;1270;22515;-50
2022/05/17 00:54:01;;;;;;;;;;;;;;;15.37;47.43;100408.41;106095;1270;25288;-49
2022/05/17 00:56:30;;;;;;;;;;;;;;;15.33;47.59;100406.05;106181;1270;22509;-48
2022/05/17 00:59:02;;;;;;;;;;;;;;;15.31;47.69;100399.35;106057;1271;22990;-50
2022/05/17 01:01:33;;;;;;;;;;;;;;;15.30;47.47;100400.58;106182;1270;22595;-51
2022/05/17 01:04:06;;;;;;;;;;;;;;;15.27;47.63;100403.73;106230;1271;22563;-51
2022/05/17 01:06:38;;;;;;;;;;;;;;;15.25;47.75;100401.38;106076;1270;24299;-52
2022/05/17 01:09:08;;;;;;;;;;;;;;;15.23;47.86;100397.74;106092;1271;22674;-52
2022/05/17 01:11:38;;;;;;;;;;;;;;;15.20;48.03;100393.13;106145;1268;22524;-49
2022/05/17 01:16:55;;;;;;;;;;;;;;;15.12;47.97;100399.51;105900;1271;24225;-49
2022/05/17 01:19:25;;;;;;;;;;;;;;;15.08;48.18;100398.52;106275;1270;22550;-49
2022/05/17 01:21:55;;;;;;;;;;;;;;;15.04;48.06;100395.86;106253;1270;22725;-50
2022/05/17 01:24:26;;;;;;;;;;;;;;;15.01;48.16;100386.80;106106;1270;25330;-50
2022/05/17 01:27:00;;;;;;;;;;;;;;;14.98;48.36;100384.58;106061;1270;22669;-49
2022/05/17 01:29:29;;;;;;;;;;;;;;;14.93;48.28;100381.91;106305;1269;26485;-48
2022/05/17 01:31:59;;;;;;;;;;;;;;;14.89;48.50;100379.34;106040;1270;26498;-49
2022/05/17 01:34:29;;;;;;;;;;;;;;;14.87;48.67;100375.55;106222;1270;25226;-52
2022/05/17 01:36:58;;;;;;;;;;;;;;;14.84;48.64;100376.96;106293;1270;22511;-54
2022/05/17 01:39:28;;;;;;;;;;;;;;;14.81;48.78;100376.09;106042;1270;23164;-53
2022/05/17 01:41:58;;;;;;;;;;;;;;;14.80;48.81;100379.86;106195;1270;22537;-51
2022/05/17 01:44:28;;;;;;;;;;;;;;;14.78;48.93;100383.06;106346;1270;22524;-49
2022/05/17 01:46:58;;;;;;;;;;;;;;;14.75;49.08;100382.55;106174;1270;24257;-52
2022/05/17 01:49:27;;;;;;;;;;;;;;;14.72;49.10;100382.02;106098;1271;22515;-50
2022/05/17 01:51:57;;;;;;;;;;;;;;;14.68;49.31;100375.06;106146;1270;22541;-50
2022/05/17 01:54:29;;;;;;;;;;;;;;;14.62;49.38;100373.15;106031;1270;25311;-49
2022/05/17 01:56:59;;;;;;;;;;;;;;;14.54;49.58;100377.66;106314;1270;25337;-50
2022/05/17 01:59:29;;;;;;;;;;;;;;;14.51;49.71;100374.51;106175;1270;23129;-50
2022/05/17 02:01:59;;;;;;;;;;;;;;;14.46;49.87;100374.74;106057;1270;23024;-51
2022/05/17 02:04:28;;;;;;;;;;;;;;;14.42;50.03;100376.56;106195;1271;22572;-49
2022/05/17 02:06:58;;;;;;;;;;;;;;;14.38;49.94;100379.71;106083;1271;24378;-49
2022/05/17 02:09:28;;;;;;;;;;;;;;;14.37;49.99;100377.87;106175;1270;22508;-49
2022/05/17 02:11:58;;;;;;;;;;;;;;;14.35;50.19;100377.54;106202;1270;22522;-51
2022/05/17 02:14:27;;;;;;;;;;;;;;;14.31;50.22;100377.06;106296;1270;22505;-48
2022/05/17 02:16:59;;;;;;;;;;;;;;;14.28;50.16;100374.19;106206;1270;22509;-50
2022/05/17 02:19:30;;;;;;;;;;;;;;;14.24;50.35;100373.63;106312;1270;22542;-54
2022/05/17 02:21:59;;;;;;;;;;;;;;;14.22;50.32;100373.10;106236;1270;25467;-50
2022/05/17 02:24:29;;;;;;;;;;;;;;;14.19;50.62;100371.65;106372;1271;22522;-50
2022/05/17 02:26:59;;;;;;;;;;;;;;;14.17;50.78;100369.90;106071;1270;24281;-48
2022/05/17 02:29:30;;;;;;;;;;;;;;;14.13;50.78;100364.41;106446;1270;22519;-48
2022/05/17 02:32:00;;;;;;;;;;;;;;;14.12;50.61;100360.11;106172;1271;22513;-48
2022/05/17 02:34:31;;;;;;;;;;;;;;;14.10;50.84;100362.05;106198;1271;25292;-49
2022/05/17 02:37:01;;;;;;;;;;;;;;;14.07;51.04;100359.11;106156;1271;22508;-51
2022/05/17 02:39:31;;;;;;;;;;;;;;;14.04;51.05;100355.79;106123;1271;22522;-50
2022/05/17 02:42:00;;;;;;;;;;;;;;;14.02;51.33;100352.80;106200;1270;25340;-58
2022/05/17 02:44:30;;;;;;;;;;;;;;;14.00;51.24;100352.84;106040;1270;339799;-50
2022/05/17 02:47:00;;;;;;;;;;;;;;;13.98;51.47;100354.45;106175;1270;25292;-50
2022/05/17 02:49:29;;;;;;;;;;;;;;;13.96;51.45;100353.79;106116;1271;22521;-49
2022/05/17 02:52:02;;;;;;;;;;;;;;;13.95;51.36;100352.70;106048;1270;22519;-52
2022/05/17 02:54:31;;;;;;;;;;;;;;;13.94;51.41;100355.91;106010;1271;25469;-54
2022/05/17 02:57:01;;;;;;;;;;;;;;;13.93;51.60;100358.23;106296;1271;22515;-49
2022/05/17 02:59:31;;;;;;;;;;;;;;;13.90;51.79;100362.25;106208;1270;25493;-50
2022/05/17 03:02:01;;;;;;;;;;;;;;;13.87;51.97;100370.90;106093;1271;22539;-49
2022/05/17 03:04:30;;;;;;;;;;;;;;;13.84;51.85;100369.87;106026;1271;22525;-49
2022/05/17 03:07:00;;;;;;;;;;;;;;;13.83;52.01;100369.70;106163;1271;25337;-49
2022/05/17 03:09:29;;;;;;;;;;;;;;;13.82;52.10;100370.05;106193;1271;25502;-49
2022/05/17 03:12:02;;;;;;;;;;;;;;;13.80;52.26;100372.49;106321;1271;22525;-50
2022/05/17 03:14:31;;;;;;;;;;;;;;;13.80;52.39;100376.57;106269;1271;22518;-51
2022/05/17 03:17:01;;;;;;;;;;;;;;;13.78;52.34;100383.64;106658;1261;22525;-62
2022/05/17 03:19:31;;;;;;;;;;;;;;;13.76;52.66;100389.85;106292;1270;24288;-62
2022/05/17 03:22:00;;;;;;;;;;;;;;;13.73;52.66;100399.66;106376;1271;25309;-61
2022/05/17 03:24:31;;;;;;;;;;;;;;;13.72;52.61;100401.39;106496;1270;25251;-62
2022/05/17 03:27:01;;;;;;;;;;;;;;;13.72;52.73;100399.30;106172;1270;24226;-60
2022/05/17 03:29:31;;;;;;;;;;;;;;;13.74;52.86;100392.39;108134;1270;25584;-62
2022/05/17 03:32:03;;;;;;;;;;;;;;;13.74;53.07;100385.20;106145;1270;24587;-62
2022/05/17 03:34:33;;;;;;;;;;;;;;;13.75;53.14;100385.71;106602;1270;25232;-62
2022/05/17 03:37:03;;;;;;;;;;;;;;;13.75;52.99;100384.85;105970;1270;22519;-63
2022/05/17 03:39:35;;;;;;;;;;;;;;;13.74;53.16;100381.77;106162;1271;25244;-62
2022/05/17 03:42:09;;;;;;;;;;;;;;;13.73;53.37;100378.14;106082;1270;22605;-63
2022/05/17 03:44:39;;;;;;;;;;;;;;;13.71;53.31;100374.52;106138;1270;22532;-62
2022/05/17 03:47:09;;;;;;;;;;;;;;;13.70;53.37;100374.10;105982;1270;25531;-62
2022/05/17 03:49:40;;;;;;;;;;;;;;;13.69;53.53;100375.95;105941;1271;22538;-62
2022/05/17 03:52:10;;;;;;;;;;;;;;;13.65;53.54;100373.04;106120;1271;22524;-62
2022/05/17 03:54:40;;;;;;;;;;;;;;;13.65;53.80;100375.84;106057;1271;22600;-60
2022/05/17 03:57:10;;;;;;;;;;;;;;;13.65;53.61;100374.11;106114;1270;22737;-62
2022/05/17 03:59:40;;;;;;;;;;;;;;;13.65;54.04;100378.09;106217;1271;25397;-61
2022/05/17 04:02:10;;;;;;;;;;;;;;;13.65;54.11;100383.79;106063;1270;22507;-62
2022/05/17 04:04:39;;;;;;;;;;;;;;;13.67;54.00;100384.57;106320;1270;26570;-62
2022/05/17 04:07:09;;;;;;;;;;;;;;;13.69;54.05;100391.17;106293;1271;22919;-62
2022/05/17 04:09:39;;;;;;;;;;;;;;;13.71;54.13;100390.52;106093;1270;22515;-62
2022/05/17 04:12:10;;;;;;;;;;;;;;;13.73;54.13;100394.17;106114;1270;24229;-62
2022/05/17 04:14:40;;;;;;;;;;;;;;;13.74;53.95;100386.98;106184;1271;22531;-63
2022/05/17 04:17:10;;;;;;;;;;;;;;;13.77;53.98;100379.76;106000;1270;22597;-62
2022/05/17 04:19:40;;;;;;;;;;;;;;;13.80;53.99;100379.17;106128;1271;22645;-62
2022/05/17 04:22:11;;;;;;;;;;;;;;;13.82;54.14;100382.16;106221;1270;22734;-63
2022/05/17 04:24:42;;;;;;;;;;;;;;;13.84;54.04;100384.46;106282;1270;22670;-63
2022/05/17 04:27:13;;;;;;;;;;;;;;;13.87;54.07;100387.02;106238;1270;24214;-63
2022/05/17 04:29:43;;;;;;;;;;;;;;;13.89;54.36;100386.48;106348;1271;25239;-61
2022/05/17 04:32:13;;;;;;;;;;;;;;;13.91;54.38;100383.95;106251;1271;22506;-62
2022/05/17 04:34:44;;;;;;;;;;;;;;;13.94;54.38;100382.08;106085;1271;22543;-63
2022/05/17 04:37:14;;;;;;;;;;;;;;;13.96;54.31;100379.40;106180;1270;24218;-62
2022/05/17 04:39:44;;;;;;;;;;;;;;;14.00;54.39;100381.16;106211;1271;24776;-62
2022/05/17 04:42:14;;;;;;;;;;;;;;;14.03;54.46;100382.05;106201;1270;22508;-61
2022/05/17 04:44:44;;;;;;;;;;;;;;;14.06;54.35;100387.17;106593;1270;27506;-62
2022/05/17 04:47:14;;;;;;;;;;;;;;;14.10;54.69;100390.46;106224;1270;24215;-62
2022/05/17 04:49:43;;;;;;;;;;;;;;;14.13;54.61;100395.95;106220;1270;23919;-60
2022/05/17 04:52:13;;;;;;;;;;;;;;;14.17;54.41;100397.62;108728;1270;22624;-62
2022/05/17 04:54:44;;;;;;;;;;;;;;;14.22;54.37;100402.29;106072;1270;22541;-62
2022/05/17 04:57:14;;;;;;;;;;;;;;;14.26;54.50;100397.02;106153;1270;24287;-62
2022/05/17 04:59:44;;;;;;;;;;;;;;;14.31;54.42;100401.27;106571;1270;22538;-62
2022/05/17 05:02:13;;;;;;;;;;;;;;;14.37;54.51;100407.28;106084;1271;25293;-63
2022/05/17 05:04:43;;;;;;;;;;;;;;;14.42;54.82;100413.44;106169;1270;22517;-63
2022/05/17 05:07:13;;;;;;;;;;;;;;;14.47;54.51;100423.92;106199;1271;22666;-62
2022/05/17 05:09:45;;;;;;;;;;;;;;;14.51;54.30;100424.73;106084;1270;24013;-61
2022/05/17 05:12:15;;;;;;;;;;;;;;;14.57;54.47;100421.39;106018;1270;26504;-62
2022/05/17 05:14:45;;;;;;;;;;;;;;;14.63;54.64;100408.70;106111;1271;25361;-62
2022/05/17 05:17:14;;;;;;;;;;;;;;;14.69;54.79;100394.42;106081;1271;22513;-62
2022/05/17 05:19:44;;;;;;;;;;;;;;;14.73;54.46;100395.98;106079;1270;22919;-62
2022/05/17 05:22:14;;;;;;;;;;;;;;;14.78;54.31;100392.73;106144;1270;25346;-62
2022/05/17 05:24:44;;;;;;;;;;;;;;;14.81;54.15;100393.83;106125;1270;22711;-63
2022/05/17 05:27:16;;;;;;;;;;;;;;;14.84;54.14;100398.38;106162;1270;22697;-62
2022/05/17 05:29:46;;;;;;;;;;;;;;;14.88;53.96;100404.89;106114;1270;22522;-63
2022/05/17 05:32:16;;;;;;;;;;;;;;;14.90;53.81;100413.63;106082;1270;22509;-63
2022/05/17 05:34:46;;;;;;;;;;;;;;;14.93;53.86;100412.78;106413;1270;24293;-63
2022/05/17 05:37:16;;;;;;;;;;;;;;;14.96;53.70;100409.63;106052;1270;22757;-63
2022/05/17 05:39:46;;;;;;;;;;;;;;;15.01;53.71;100415.21;106353;1270;22588;-62
2022/05/17 05:42:16;;;;;;;;;;;;;;;15.04;53.98;100414.50;106141;1270;22589;-61
2022/05/17 05:44:46;;;;;;;;;;;;;;;15.08;54.03;100417.68;106111;1270;24406;-62
2022/05/17 05:47:15;;;;;;;;;;;;;;;15.12;53.69;100420.77;106127;1270;22764;-62
2022/05/17 05:49:45;;;;;;;;;;;;;;;15.17;53.73;100419.52;106052;1270;25110;-62
2022/05/17 05:52:15;;;;;;;;;;;;;;;15.21;53.76;100418.40;106055;1270;22517;-62
2022/05/17 05:54:45;;;;;;;;;;;;;;;15.27;53.31;100420.26;106149;1271;25368;-62
2022/05/17 05:57:27;;;;;;;;;;;;;;;15.32;53.40;100418.85;106143;1271;24656;-63
2022/05/17 05:59:57;;;;;;;;;;;;;;;15.38;53.45;100416.50;106519;1270;25261;-62
2022/05/17 06:02:27;;;;;;;;;;;;;;;15.45;53.32;100417.11;106067;1270;23087;-63
2022/05/17 06:04:57;;;;;;;;;;;;;;;15.52;53.48;100421.83;106110;1270;24334;-63
2022/05/17 06:07:27;;;;;;;;;;;;;;;15.59;53.24;100427.48;106033;1271;22611;-63
2022/05/17 06:09:57;;;;;;;;;;;;;;;15.66;52.93;100427.33;106103;1270;24262;-62
2022/05/17 06:12:26;;;;;;;;;;;;;;;15.73;52.80;100425.70;106131;1271;25330;-66
2022/05/17 06:14:56;;;;;;;;;;;;;;;15.80;52.72;100428.52;106220;1270;23317;-62
2022/05/17 06:17:27;;;;;;;;;;;;;;;15.86;52.47;100426.27;106315;1270;23069;-62
2022/05/17 06:19:57;;;;;;;;;;;;;;;15.96;52.59;100424.52;107179;1271;22513;-62
2022/05/17 06:22:28;;;;;;;;;;;;;;;16.04;52.66;100431.09;106144;1270;25446;-62
2022/05/17 06:24:57;;;;;;;;;;;;;;;16.11;52.34;100429.18;106155;1270;25461;-61
2022/05/17 06:27:28;;;;;;;;;;;;;;;16.21;52.21;100430.10;106279;1270;25408;-62
2022/05/17 06:29:57;;;;;;;;;;;;;;;16.31;51.99;100435.94;106111;1271;23002;-62
2022/05/17 06:32:27;;;;;;;;;;;;;;;16.40;51.84;100434.33;106545;1270;25388;-63
2022/05/17 06:34:57;;;;;;;;;;;;;;;16.49;51.53;100435.45;106265;1271;22521;-62
2022/05/17 06:37:27;;;;;;;;;;;;;;;16.58;51.37;100444.93;105887;1270;24237;-62
2022/05/17 06:39:57;;;;;;;;;;;;;;;16.67;51.31;100449.58;106188;1271;22557;-62
2022/05/17 06:42:27;;;;;;;;;;;;;;;16.77;51.54;100449.70;106039;1271;22457;-62
2022/05/17 06:44:57;;;;;;;;;;;;;;;16.87;51.13;100450.55;106186;1271;22505;-62
2022/05/17 06:47:27;;;;;;;;;;;;;;;16.94;50.83;100446.37;106249;1271;26159;-62
2022/05/17 06:49:57;;;;;;;;;;;;;;;17.01;50.90;100447.77;106273;1270;22506;-63
2022/05/17 06:52:27;;;;;;;;;;;;;;;17.09;50.60;100449.39;106143;1271;24264;-62
2022/05/17 06:54:57;;;;;;;;;;;;;;;17.16;50.50;100452.23;106163;1271;22543;-63
2022/05/17 06:57:33;;;;;;;;;;;;;;;17.23;50.59;100450.34;106129;1270;25413;-62
2022/05/17 07:00:05;;;;;;;;;;;;;;;17.32;50.49;100451.04;106152;1271;24233;-63
2022/05/17 07:02:35;;;;;;;;;;;;;;;17.38;49.92;100453.56;106356;1271;22649;-63
2022/05/17 07:05:05;;;;;;;;;;;;;;;17.43;49.87;100454.45;106151;1271;25524;-62
2022/05/17 07:07:35;;;;;;;;;;;;;;;17.47;50.14;100454.48;106087;1271;25525;-63
2022/05/17 07:13:12;;;;;;;;;;;;;;;17.48;50.05;100455.67;105877;1271;22575;-62
2022/05/17 07:15:42;;;;;;;;;;;;;;;17.48;49.91;100455.52;106186;1271;24264;-65
2022/05/17 07:18:13;;;;;;;;;;;;;;;17.45;49.87;100452.48;106160;1271;22986;-63
2022/05/17 07:20:45;;;;;;;;;;;;;;;17.44;50.01;100451.20;106093;1271;22506;-63
2022/05/17 07:23:15;;;;;;;;;;;;;;;17.45;49.88;100444.80;106159;1270;24355;-63
2022/05/17 07:25:46;;;;;;;;;;;;;;;17.47;50.04;100448.07;105976;1271;24485;-62
2022/05/17 07:28:18;;;;;;;;;;;;;;;17.50;50.01;100449.77;106297;1271;22611;-63
2022/05/17 07:30:48;;;;;;;;;;;;;;;17.52;50.17;100447.05;106022;1271;22509;-62
2022/05/17 07:33:18;;;;;;;;;;;;;;;17.57;49.96;100447.42;106177;1270;25522;-63
2022/05/17 07:35:48;;;;;;;;;;;;;;;17.59;49.79;100444.99;106125;1271;22704;-62
2022/05/17 07:38:19;;;;;;;;;;;;;;;17.61;49.80;100445.80;106276;1271;27664;-63
2022/05/17 07:40:53;;;;;;;;;;;;;;;17.62;50.13;100447.45;106100;1271;25323;-63
2022/05/17 07:43:23;;;;;;;;;;;;;;;17.64;50.02;100453.33;106007;1271;24377;-63
2022/05/17 07:45:52;;;;;;;;;;;;;;;17.66;49.85;100458.20;106222;1271;24083;-63
2022/05/17 07:48:23;;;;;;;;;;;;;;;17.68;49.79;100456.18;106040;1271;22810;-63
2022/05/17 07:50:53;;;;;;;;;;;;;;;17.68;49.95;100458.04;106210;1271;25407;-62
2022/05/17 07:53:24;;;;;;;;;;;;;;;17.68;49.91;100459.02;106172;1271;25455;-63
2022/05/17 07:55:54;;;;;;;;;;;;;;;17.70;49.90;100461.41;106227;1271;22509;-62
2022/05/17 07:58:24;;;;;;;;;;;;;;;17.71;49.64;100464.27;106394;1271;25570;-63
2022/05/17 08:00:54;;;;;;;;;;;;;;;17.72;49.54;100467.36;106106;1271;22523;-63
2022/05/17 08:03:24;;;;;;;;;;;;;;;17.70;49.46;100471.36;106036;1271;26246;-64
2022/05/17 08:05:54;;;;;;;;;;;;;;;17.67;49.37;100472.30;106122;1271;25230;-63
2022/05/17 08:08:23;;;;;;;;;;;;;;;17.64;49.49;100474.95;106053;1271;24332;-63
2022/05/17 08:10:55;;;;;;;;;;;;;;;17.65;49.48;100477.34;106134;1271;25229;-62
2022/05/17 08:13:25;;;;;;;;;;;;;;;17.64;49.60;100481.47;105942;1271;25387;-63
2022/05/17 08:15:56;;;;;;;;;;;;;;;17.66;49.69;100481.30;106088;1271;25336;-62
2022/05/17 08:18:26;;;;;;;;;;;;;;;17.66;49.69;100484.44;106085;1271;23656;-64
2022/05/17 08:20:56;;;;;;;;;;;;;;;17.67;49.71;100486.98;106149;1271;22522;-63
2022/05/17 08:23:26;;;;;;;;;;;;;;;17.65;49.57;100493.02;106338;1271;25311;-62
2022/05/17 08:28:45;;;;;;;;;;;;;;;17.60;49.45;100498.73;106040;1271;22521;-63
2022/05/17 08:31:15;;;;;;;;;;;;;;;17.61;49.51;100503.40;106208;1271;22540;-63
2022/05/17 08:33:45;;;;;;;;;;;;;;;17.64;49.66;100508.20;106035;1271;22512;-61
2022/05/17 08:36:14;;;;;;;;;;;;;;;17.68;49.49;100509.48;106191;1271;25268;-63
2022/05/17 08:38:46;;;;;;;;;;;;;;;17.70;49.55;100510.02;106056;1271;25413;-63
2022/05/17 08:41:23;;;;;;;;;;;;;;;17.73;49.43;100510.77;106083;1271;25313;-63
2022/05/17 08:43:54;;;;;;;;;;;;;;;17.73;49.41;100510.01;105987;1271;24249;-64
2022/05/17 08:46:27;;;;;;;;;;;;;;;17.76;49.12;100506.91;106135;1271;22570;-63
2022/05/17 08:49:00;;;;;;;;;;;;;;;17.76;49.06;100510.20;106205;1271;25474;-63
2022/05/17 08:51:39;;;;;;;;;;;;;;;17.78;49.15;100508.23;106224;1271;23732;-63
2022/05/17 08:54:10;;;;;;;;;;;;;;;17.84;48.91;100513.38;106150;1271;23118;-62
2022/05/17 08:56:45;;;;;;;;;;;;;;;17.87;49.21;100517.05;106226;1271;25367;-63
2022/05/17 08:59:19;;;;;;;;;;;;;;;17.88;48.99;100521.11;106093;1270;22534;-62
2022/05/17 09:01:52;;;;;;;;;;;;;;;17.91;49.11;100520.22;106129;1271;23244;-63
2022/05/17 09:04:29;;;;;;;;;;;;;;;17.95;49.54;100519.94;106045;1271;25346;-63
2022/05/17 09:07:04;;;;;;;;;;;;;;;17.96;49.59;100525.57;106120;1271;22522;-62
2022/05/17 09:09:40;;;;;;;;;;;;;;;17.97;49.69;100525.47;106153;1271;22541;-63
2022/05/17 09:12:16;;;;;;;;;;;;;;;18.00;49.81;100525.80;106374;1270;22984;-63
2022/05/17 09:14:47;;;;;;;;;;;;;;;18.04;49.89;100526.81;106206;1271;22544;-63
2022/05/17 09:17:21;;;;;;;;;;;;;;;18.09;50.16;100527.43;106038;1271;25661;-63
2022/05/17 09:19:51;;;;;;;;;;;;;;;18.13;50.21;100524.48;105903;1271;22864;-62
2022/05/17 09:22:22;;;;;;;;;;;;;;;18.19;50.25;100525.05;106050;1271;25394;-62
2022/05/17 09:24:55;;;;;;;;;;;;;;;18.20;50.06;100524.89;106046;1271;25181;-63
2022/05/17 09:27:33;;;;;;;;;;;;;;;18.22;50.04;100524.21;106148;1271;22519;-63
2022/05/17 09:30:07;;;;;;;;;;;;;;;18.24;49.81;100522.29;106105;1271;22516;-64
2022/05/17 09:32:38;;;;;;;;;;;;;;;18.27;49.74;100521.70;106068;1271;22512;-63
2022/05/17 09:35:12;;;;;;;;;;;;;;;18.31;49.78;100519.09;106050;1271;22451;-63
2022/05/17 09:37:43;;;;;;;;;;;;;;;18.32;49.53;100517.29;106048;1271;22750;-63
2022/05/17 09:40:15;;;;;;;;;;;;;;;18.33;49.58;100519.00;106138;1271;23953;-62
2022/05/17 09:42:52;;;;;;;;;;;;;;;18.35;49.30;100522.47;106116;1271;22543;-63
2022/05/17 09:45:37;;;;;;;;;;;;;;;18.34;49.13;100525.30;106214;1271;24381;-63
2022/05/17 09:48:08;;;;;;;;;;;;;;;18.35;49.10;100528.89;106048;1271;22576;-63
2022/05/17 09:53:40;;;;;;;;;;;;;;;18.36;49.24;100526.62;105498;1277;22569;-62
2022/05/17 09:56:10;;;;;;;;;;;;;;;18.37;49.23;100531.08;105576;1277;24350;-63
2022/05/17 09:58:40;;;;;;;;;;;;;;;18.38;49.24;100530.25;105630;1277;22558;-63
2022/05/17 10:01:12;;;;;;;;;;;;;;;18.40;49.13;100532.45;105661;1278;22880;-63
2022/05/17 10:03:43;;;;;;;;;;;;;;;18.39;49.07;100532.15;105674;1278;22561;-63
2022/05/17 10:06:17;;;;;;;;;;;;;;;18.38;49.24;100533.74;105635;1277;25232;-63
2022/05/17 10:08:49;;;;;;;;;;;;;;;18.39;49.42;100532.30;105752;1277;22528;-63
2022/05/17 10:11:21;;;;;;;;;;;;;;;18.41;49.43;100533.16;105667;1277;22524;-63
2022/05/17 10:13:55;;;;;;;;;;;;;;;18.46;49.56;100530.06;105600;1277;23865;-63
2022/05/17 10:16:27;;;;;;;;;;;;;;;18.50;50.21;100528.07;105596;1276;25324;-63
2022/05/17 10:18:59;;;;;;;;;;;;;;;18.53;50.04;100530.10;105688;1277;24211;-63
2022/05/17 10:21:31;;;;;;;;;;;;;;;18.53;50.43;100532.88;105686;1277;22671;-63
2022/05/17 10:24:07;;;;;;;;;;;;;;;18.52;50.61;100540.85;105709;1278;25359;-63
2022/05/17 10:26:39;;;;;;;;;;;;;;;18.50;50.87;100544.46;105732;1277;24231;-64
2022/05/17 10:29:14;;;;;;;;;;;;;;;18.51;51.37;100548.06;105663;1277;22600;-65
2022/05/17 10:31:46;;;;;;;;;;;;;;;18.52;51.46;100551.90;105906;1271;22541;-64
2022/05/17 10:34:25;;;;;;;;;;;;;;;18.52;51.77;100547.79;106065;1271;22553;-63
2022/05/17 10:36:57;;;;;;;;;;;;;;;18.51;52.09;100552.02;105878;1271;25362;-63
2022/05/17 10:39:34;;;;;;;;;;;;;;;18.49;52.37;100554.30;105950;1271;24405;-63
2022/05/17 10:42:05;;;;;;;;;;;;;;;18.47;53.04;100552.05;106052;1271;24798;-62
2022/05/17 10:44:40;;;;;;;;;;;;;;;18.45;53.19;100548.11;105923;1271;25238;-63
2022/05/17 10:47:14;;;;;;;;;;;;;;;18.47;53.33;100546.55;105839;1271;25298;-64
2022/05/17 10:49:52;;;;;;;;;;;;;;;18.47;53.83;100549.27;105824;1272;23810;-63
2022/05/17 10:52:26;;;;;;;;;;;;;;;18.45;53.61;100558.39;106027;1271;25330;-63
2022/05/17 10:54:59;;;;;;;;;;;;;;;18.40;54.13;100569.35;106091;1271;22607;-64
2022/05/17 10:57:35;;;;;;;;;;;;;;;18.36;54.93;100577.54;106005;1271;24247;-65
2022/05/17 11:00:09;;;;;;;;;;;;;;;18.33;55.58;100580.81;106032;1271;22517;-65
2022/05/17 11:02:51;;;;;;;;;;;;;;;18.27;56.07;100579.88;105992;1271;22520;-65
2022/05/17 11:05:26;;;;;;;;;;;;;;;18.21;56.77;100584.17;106210;1271;24298;-64
2022/05/17 11:08:00;;;;;;;;;;;;;;;18.15;57.34;100585.09;106087;1271;24328;-64
2022/05/17 11:10:36;;;;;;;;;;;;;;;18.09;57.69;100586.05;106079;1271;24201;-64
2022/05/17 11:13:10;;;;;;;;;;;;;;;18.07;57.78;100584.99;106004;1271;25225;-65
2022/05/17 11:15:42;;;;;;;;;;;;;;;18.09;58.11;100586.92;105941;1271;22726;-64
2022/05/17 11:18:16;;;;;;;;;;;;;;;18.11;57.85;100589.54;106080;1271;22512;-65
2022/05/17 11:20:52;;;;;;;;;;;;;;;18.11;57.92;100583.21;106232;1271;22514;-64
2022/05/17 11:23:34;;;;;;;;;;;;;;;18.14;57.86;100591.63;106182;1271;24277;-64
2022/05/17 11:26:21;;;;;;;;;;;;;;;18.16;56.46;100594.80;105993;1271;25400;-65
2022/05/17 11:29:07;;;;;;;;;;;;;;;18.18;57.26;100600.48;105995;1271;25332;-65
2022/05/17 11:31:43;;;;;;;;;;;;;;;18.24;57.88;100599.79;106148;1271;22523;-65
2022/05/17 11:34:30;;;;;;;;;;;;;;;18.32;58.53;100600.29;106221;1271;22513;-65
2022/05/17 11:37:02;;;;;;;;;;;;;;;18.37;57.97;100602.77;106027;1271;23087;-65
2022/05/17 11:39:46;;;;;;;;;;;;;;;18.39;56.90;100606.70;106083;1271;22521;-65
2022/05/17 11:42:27;;;;;;;;;;;;;;;18.41;55.94;100605.89;105994;1271;26598;-65
2022/05/17 11:45:16;;;;;;;;;;;;;;;18.43;54.89;100614.20;106152;1271;24781;-66
2022/05/17 11:47:54;;;;;;;;;;;;;;;18.45;54.94;100620.33;106052;1271;22509;-65
2022/05/17 11:50:42;;;;;;;;;;;;;;;18.47;54.77;100620.36;106049;1271;22522;-65
2022/05/17 11:53:30;;;;;;;;;;;;;;;18.49;54.72;100629.09;106050;1271;24270;-65
2022/05/17 11:56:18;;;;;;;;;;;;;;;18.51;54.71;100631.54;106004;1271;22535;-64
2022/05/17 11:58:49;;;;;;;;;;;;;;;18.53;55.02;100632.66;106052;1271;22531;-63
2022/05/17 12:01:36;;;;;;;;;;;;;;;18.46;54.73;100632.60;106080;1271;22516;-64
2022/05/17 12:04:09;;;;;;;;;;;;;;;18.37;55.08;100633.80;105906;1271;25531;-64
2022/05/17 12:06:52;;;;;;;;;;;;;;;18.31;55.24;100629.59;106047;1271;25235;-64
2022/05/17 12:09:30;;;;;;;;;;;;;;;18.27;55.34;100631.73;106008;1271;25366;-63
2022/05/17 12:12:16;;;;;;;;;;;;;;;18.21;55.49;100633.40;106225;1271;25538;-64
2022/05/17 12:14:50;;;;;;;;;;;;;;;18.16;55.52;100633.77;106142;1271;23463;-63
2022/05/17 12:17:22;;;;;;;;;;;;;;;18.12;55.60;100632.07;106214;1271;22664;-64
2022/05/17 12:19:59;;;;;;;;;;;;;;;18.07;56.06;100638.98;106339;1271;23953;-63
2022/05/17 12:22:33;;;;;;;;;;;;;;;17.97;56.57;100639.80;106077;1271;25361;-63
2022/05/17 12:25:09;;;;;;;;;;;;;;;17.82;57.16;100639.40;106347;1270;22523;-63
2022/05/17 12:27:41;;;;;;;;;;;;;;;17.74;58.02;100627.58;106035;1269;22556;-65
2022/05/17 12:33:07;;;;;;;;;;;;;;;17.66;59.24;100610.30;106066;1270;22525;-65
2022/05/17 12:35:37;;;;;;;;;;;;;;;17.63;59.55;100602.73;106100;1271;22584;-65
2022/05/17 12:43:02;;;;;;;;;;;;;;;17.63;59.74;100600.66;106155;1270;24228;-66
2022/05/17 12:43:49;;;;;;;;;;;;;;;17.72;60.37;100600.16;106397;1270;24305;-66
2022/05/17 12:46:23;;;;;;;;;;;;;;;17.76;60.59;100612.98;106066;1270;22528;-65
2022/05/17 12:48:55;;;;;;;;;;;;;;;17.83;60.57;100617.67;106019;1271;22955;-66
2022/05/17 12:51:26;;;;;;;;;;;;;;;17.88;59.82;100631.27;106062;1271;22997;-66
2022/05/17 12:53:58;;;;;;;;;;;;;;;17.93;59.97;100631.70;105957;1271;22535;-65
2022/05/17 12:56:36;;;;;;;;;;;;;;;17.95;60.01;100636.73;106174;1270;22692;-66
2022/05/17 12:59:09;;;;;;;;;;;;;;;17.94;58.75;100632.05;106181;1271;22668;-65
2022/05/17 13:01:40;;;;;;;;;;;;;;;17.93;58.24;100627.75;106160;1271;22465;-65
2022/05/17 13:04:11;;;;;;;;;;;;;;;17.96;58.45;100630.20;106123;1270;24323;-65
2022/05/17 13:06:43;;;;;;;;;;;;;;;18.02;58.16;100628.10;106119;1271;25476;-65